Time;durP1;ratioP1;P1;durP2;ratioP2;P2;SDS_P1;SDS_P2;PMS_P1;PMS_P2;Temp;Humidity;BMP_temperature;BMP_pressure;BME280_temperature;BME280_humidity;BME280_pressure;Samples;Min_cycle;Max_cycle;Signal;HPM_P1;HPM_P2
2023/04/12 00:02:16;;;;;;;8.18;4.78;;;4.80;99.90;;;;;;5054205;28;20202;-60
2023/04/12 00:04:43;;;;;;;5.72;4.53;;;4.80;99.90;;;;;;5054581;28;20663;-61
2023/04/12 00:07:11;;;;;;;6.40;5.10;;;4.90;99.90;;;;;;5054611;28;20222;-60
2023/04/12 00:09:38;;;;;;;8.80;4.63;;;4.90;99.90;;;;;;5054880;28;20288;-60
2023/04/12 00:12:06;;;;;;;6.60;4.30;;;4.90;99.90;;;;;;5054760;28;20212;-60
2023/04/12 00:14:33;;;;;;;7.13;5.53;;;4.90;99.90;;;;;;5054159;28;20224;-61
2023/04/12 00:16:59;;;;;;;6.40;4.40;;;4.90;99.90;;;;;;5053938;28;20588;-61
2023/04/12 00:19:29;;;;;;;6.22;4.05;;;4.90;99.90;;;;;;5054326;28;20201;-60
2023/04/12 00:21:57;;;;;;;4.53;4.05;;;4.90;99.90;;;;;;5054105;28;20296;-59
2023/04/12 00:24:25;;;;;;;5.65;3.83;;;4.90;99.90;;;;;;5053962;28;20202;-60
2023/04/12 00:26:52;;;;;;;5.10;3.47;;;4.80;99.90;;;;;;5055598;28;20284;-60
2023/04/12 00:29:20;;;;;;;7.80;4.07;;;4.80;99.90;;;;;;5058114;28;20235;-61
2023/04/12 00:31:46;;;;;;;7.28;4.45;;;4.80;99.90;;;;;;5058173;28;20653;-61
2023/04/12 00:34:13;;;;;;;6.85;3.67;;;4.80;99.90;;;;;;5057920;28;20203;-61
2023/04/12 00:36:40;;;;;;;11.60;4.00;;;4.80;99.90;;;;;;5057029;28;20704;-60
2023/04/12 00:39:07;;;;;;;5.43;3.47;;;4.80;99.90;;;;;;5057631;28;20233;-61
2023/04/12 00:41:37;;;;;;;9.93;3.30;;;4.70;99.90;;;;;;5057264;28;20251;-61
2023/04/12 00:44:04;;;;;;;8.30;3.72;;;4.70;99.90;;;;;;5057349;28;20201;-60
2023/04/12 00:46:32;;;;;;;6.38;4.10;;;4.70;99.90;;;;;;5057249;28;20217;-60
2023/04/12 00:49:00;;;;;;;7.00;3.85;;;4.70;99.90;;;;;;5058354;28;20212;-60
2023/04/12 00:51:32;;;;;;;5.88;3.60;;;4.70;99.90;;;;;;5057926;28;20216;-61
2023/04/12 00:54:00;;;;;;;5.28;3.58;;;4.70;99.90;;;;;;5057994;28;20285;-60
2023/04/12 00:56:28;;;;;;;4.40;3.30;;;4.70;99.90;;;;;;5056736;28;20233;-60
2023/04/12 00:58:57;;;;;;;7.25;3.92;;;4.60;99.90;;;;;;5057131;28;20697;-60
2023/04/12 01:01:23;;;;;;;5.68;3.30;;;4.70;99.90;;;;;;5057153;28;20264;-60
2023/04/12 01:03:52;;;;;;;6.88;4.10;;;4.70;99.90;;;;;;5056957;28;20205;-60
2023/04/12 01:06:29;;;;;;;4.45;3.33;;;4.70;99.90;;;;;;5057215;28;20228;-61
2023/04/12 01:09:03;;;;;;;3.17;2.67;;;4.60;99.90;;;;;;5057033;28;20593;-61
2023/04/12 01:11:37;;;;;;;9.77;3.60;;;4.60;99.90;;;;;;5057149;28;20193;-59
2023/04/12 01:14:11;;;;;;;5.20;3.20;;;4.60;99.90;;;;;;5056568;28;20197;-60
2023/04/12 01:16:43;;;;;;;4.28;3.58;;;4.60;99.90;;;;;;5057077;28;20237;-60
2023/04/12 01:19:27;;;;;;;6.07;3.08;;;4.60;99.90;;;;;;5056771;28;20276;-60
2023/04/12 01:22:08;;;;;;;4.47;2.88;;;4.60;99.90;;;;;;5057471;28;20186;-60
2023/04/12 01:24:47;;;;;;;4.20;3.05;;;4.60;99.90;;;;;;5056222;28;20711;-60
2023/04/12 01:27:28;;;;;;;7.38;3.50;;;4.60;99.90;;;;;;5056406;28;20225;-59
2023/04/12 01:29:58;;;;;;;5.18;2.78;;;4.60;99.90;;;;;;5056127;28;20648;-62
2023/04/12 01:32:25;;;;;;;5.00;2.90;;;4.70;99.90;;;;;;5056348;28;20208;-61
2023/04/12 01:34:53;;;;;;;4.47;3.30;;;4.70;99.90;;;;;;5055668;28;20224;-61
2023/04/12 01:37:21;;;;;;;3.72;3.20;;;4.70;99.90;;;;;;5055838;28;20230;-61
2023/04/12 01:39:49;;;;;;;5.82;2.70;;;4.70;99.90;;;;;;5054871;28;20693;-61
2023/04/12 01:42:20;;;;;;;3.30;2.47;;;4.70;99.90;;;;;;5056102;28;20205;-59
2023/04/12 01:44:47;;;;;;;6.82;3.20;;;4.70;99.90;;;;;;5055902;28;20239;-59
2023/04/12 01:47:14;;;;;;;5.20;2.92;;;4.70;99.90;;;;;;5055870;28;20585;-60
2023/04/12 01:49:55;;;;;;;5.03;2.90;;;4.70;99.90;;;;;;5055444;28;20205;-60
2023/04/12 01:52:26;;;;;;;5.57;2.80;;;4.70;99.90;;;;;;5055399;28;20206;-61
2023/04/12 01:54:57;;;;;;;2.95;2.40;;;4.80;99.90;;;;;;5055685;28;20188;-61
2023/04/12 01:57:26;;;;;;;6.15;3.45;;;4.70;99.90;;;;;;5056245;28;20226;-61
2023/04/12 01:59:54;;;;;;;4.05;3.00;;;4.80;99.90;;;;;;5057080;28;20201;-60
2023/04/12 02:02:22;;;;;;;5.35;2.63;;;4.80;99.90;;;;;;5056099;28;20584;-60
2023/04/12 02:04:49;;;;;;;6.63;3.35;;;4.80;99.90;;;;;;5055832;28;20694;-61
2023/04/12 02:07:19;;;;;;;2.78;2.40;;;4.80;99.90;;;;;;5055270;28;20253;-60
2023/04/12 02:09:46;;;;;;;7.70;2.97;;;4.90;99.90;;;;;;5055085;28;20684;-60
2023/04/12 02:12:13;;;;;;;4.65;3.08;;;4.90;99.90;;;;;;5054846;28;20676;-61
2023/04/12 02:14:41;;;;;;;7.00;3.03;;;4.90;99.90;;;;;;5055233;28;20202;-58
2023/04/12 02:17:08;;;;;;;3.15;2.35;;;4.90;99.90;;;;;;5054917;28;20229;-60
2023/04/12 02:19:35;;;;;;;6.78;2.60;;;4.90;99.90;;;;;;5055044;28;20529;-60
2023/04/12 02:22:03;;;;;;;2.25;1.95;;;4.90;99.90;;;;;;5055034;28;20210;-59
2023/04/12 02:24:30;;;;;;;5.47;2.70;;;4.90;99.90;;;;;;5054793;28;20683;-60
2023/04/12 02:26:58;;;;;;;4.85;2.53;;;5.00;99.90;;;;;;5078138;22;20347;-65
2023/04/12 02:29:25;;;;;;;3.80;2.78;;;5.00;99.90;;;;;;5055710;28;20206;-64
2023/04/12 02:31:54;;;;;;;2.95;2.20;;;5.00;99.90;;;;;;5056119;28;20205;-64
2023/04/12 02:34:21;;;;;;;6.55;2.38;;;5.00;99.90;;;;;;5055770;28;20292;-65
2023/04/12 02:36:48;;;;;;;5.95;3.20;;;5.00;99.90;;;;;;5056783;28;20234;-65
2023/04/12 02:39:17;;;;;;;6.32;2.70;;;5.00;99.90;;;;;;5056624;28;20202;-63
2023/04/12 02:41:44;;;;;;;3.53;2.17;;;5.10;99.90;;;;;;5056404;28;20248;-65
2023/04/12 02:44:11;;;;;;;2.75;1.85;;;5.10;99.90;;;;;;5055960;28;20204;-64
2023/04/12 02:46:37;;;;;;;4.85;1.98;;;5.10;99.90;;;;;;5055319;28;20232;-65
2023/04/12 02:49:06;;;;;;;5.13;2.38;;;5.10;99.90;;;;;;5055812;28;20198;-63
2023/04/12 02:51:33;;;;;;;4.18;2.08;;;5.10;99.90;;;;;;5053708;28;20202;-65
2023/04/12 02:54:00;;;;;;;5.22;2.60;;;5.10;99.90;;;;;;5054400;28;20198;-64
2023/04/12 02:56:28;;;;;;;4.22;2.05;;;5.20;99.90;;;;;;5054450;28;20309;-64
2023/04/12 02:58:55;;;;;;;4.35;2.15;;;5.20;99.90;;;;;;5054961;28;20288;-64
2023/04/12 03:01:22;;;;;;;4.68;2.05;;;5.20;99.90;;;;;;5054372;28;20202;-65
2023/04/12 03:03:49;;;;;;;5.45;1.90;;;5.20;99.90;;;;;;5054227;28;20201;-64
2023/04/12 03:06:17;;;;;;;5.15;2.30;;;5.30;99.90;;;;;;5054154;28;20570;-64
2023/04/12 03:08:44;;;;;;;5.43;2.30;;;5.30;99.90;;;;;;5054122;28;20208;-65
2023/04/12 03:11:11;;;;;;;3.30;2.00;;;5.30;99.90;;;;;;5054318;28;20209;-64
2023/04/12 03:13:38;;;;;;;3.70;2.38;;;5.30;99.90;;;;;;5055086;28;20613;-63
2023/04/12 03:16:22;;;;;;;4.25;2.60;;;5.30;99.90;;;;;;5054048;28;20233;-65
2023/04/12 03:18:50;;;;;;;3.47;2.17;;;5.30;99.90;;;;;;5054254;28;20240;-64
2023/04/12 03:21:18;;;;;;;3.95;2.38;;;5.30;99.90;;;;;;5053642;28;20263;-65
2023/04/12 03:23:45;;;;;;;5.63;2.53;;;5.30;99.90;;;;;;5053733;28;20292;-64
2023/04/12 03:26:11;;;;;;;3.00;2.40;;;5.30;99.90;;;;;;5054150;28;20230;-64
2023/04/12 03:28:38;;;;;;;2.53;2.10;;;5.30;99.90;;;;;;5053482;28;20670;-65
2023/04/12 03:31:06;;;;;;;7.47;2.10;;;5.30;99.90;;;;;;5053908;28;20205;-64
2023/04/12 03:33:32;;;;;;;4.95;2.15;;;5.30;99.90;;;;;;5053759;28;20217;-65
2023/04/12 03:36:00;;;;;;;3.28;2.70;;;5.30;99.90;;;;;;5054227;28;20221;-64
2023/04/12 03:38:28;;;;;;;5.03;2.10;;;5.30;99.90;;;;;;5053888;28;20312;-65
2023/04/12 03:40:55;;;;;;;4.47;2.17;;;5.40;99.90;;;;;;5054015;28;20204;-65
2023/04/12 03:43:22;;;;;;;2.92;2.00;;;5.40;99.90;;;;;;5053905;28;20236;-65
2023/04/12 03:45:49;;;;;;;3.35;2.15;;;5.40;99.90;;;;;;5053817;28;20222;-64
2023/04/12 03:48:16;;;;;;;4.65;2.15;;;5.40;99.90;;;;;;5055154;28;20197;-65
2023/04/12 03:50:44;;;;;;;4.38;2.47;;;5.40;99.90;;;;;;5054256;28;20233;-64
2023/04/12 03:53:10;;;;;;;4.88;2.50;;;5.40;99.90;;;;;;5053881;28;20594;-64
2023/04/12 03:55:39;;;;;;;5.70;2.50;;;5.40;99.90;;;;;;5053580;28;20706;-65
2023/04/12 03:58:06;;;;;;;4.97;2.47;;;5.50;99.90;;;;;;5053880;28;20222;-65
2023/04/12 04:00:33;;;;;;;5.82;2.60;;;5.50;99.90;;;;;;5054056;28;20213;-64
2023/04/12 04:03:01;;;;;;;5.68;2.25;;;5.60;99.90;;;;;;5053897;28;20285;-64
2023/04/12 04:05:29;;;;;;;2.97;1.95;;;5.60;99.90;;;;;;5053850;28;20679;-66
2023/04/12 04:07:59;;;;;;;4.00;2.00;;;5.70;99.90;;;;;;5053803;28;20720;-64
2023/04/12 04:11:32;;;;;;;4.03;2.08;;;5.80;99.90;;;;;;5093003;27;20534;-65
2023/04/12 04:13:59;;;;;;;4.60;2.75;;;5.80;99.90;;;;;;5092183;28;20235;-66
2023/04/12 04:16:27;;;;;;;2.78;2.20;;;5.90;99.90;;;;;;5092007;28;20224;-65
2023/04/12 04:18:54;;;;;;;2.35;1.90;;;5.90;99.90;;;;;;5092216;28;20204;-66
2023/04/12 04:21:22;;;;;;;4.22;2.05;;;6.00;99.70;;;;;;5092960;28;20250;-66
2023/04/12 04:23:50;;;;;;;3.85;2.08;;;6.00;99.50;;;;;;5093391;28;20739;-65
2023/04/12 04:26:17;;;;;;;1.95;1.70;;;6.00;99.30;;;;;;5093008;28;20221;-66
2023/04/12 04:28:46;;;;;;;6.28;2.47;;;6.10;99.20;;;;;;5092514;28;20702;-65
2023/04/12 04:31:16;;;;;;;7.22;2.65;;;6.10;99.30;;;;;;5091930;28;20224;-65
2023/04/12 04:33:43;;;;;;;3.25;1.90;;;6.10;98.80;;;;;;5092243;28;20204;-65
2023/04/12 04:36:11;;;;;;;5.88;2.50;;;6.20;98.80;;;;;;5093700;28;20220;-65
2023/04/12 04:38:39;;;;;;;4.32;2.42;;;6.20;98.60;;;;;;5093779;28;20200;-66
2023/04/12 04:41:07;;;;;;;5.00;2.75;;;6.20;98.60;;;;;;5093876;28;20235;-65
2023/04/12 04:43:38;;;;;;;9.32;2.63;;;6.20;98.60;;;;;;5093926;28;20268;-64
2023/04/12 04:46:07;;;;;;;3.20;2.10;;;6.20;98.50;;;;;;5095714;28;20242;-65
2023/04/12 04:48:33;;;;;;;2.78;1.70;;;6.20;98.40;;;;;;5094121;28;20230;-64
2023/04/12 04:51:01;;;;;;;4.70;2.58;;;6.20;98.40;;;;;;5091432;28;20311;-64
2023/04/12 04:53:28;;;;;;;3.95;2.60;;;6.20;98.30;;;;;;5092630;28;20621;-65
2023/04/12 04:55:58;;;;;;;2.50;1.65;;;6.20;98.50;;;;;;5089948;28;20299;-64
2023/04/12 04:58:25;;;;;;;3.25;2.00;;;6.30;98.20;;;;;;5090239;28;20201;-64
2023/04/12 05:00:54;;;;;;;8.48;2.45;;;6.30;98.10;;;;;;5089771;28;20201;-65
2023/04/12 05:03:27;;;;;;;3.70;2.40;;;6.30;98.00;;;;;;5090059;28;20735;-65
2023/04/12 05:05:54;;;;;;;4.35;2.50;;;6.40;97.90;;;;;;5089862;28;20273;-63
2023/04/12 05:08:20;;;;;;;5.60;2.78;;;6.50;97.90;;;;;;5089873;28;20586;-66
2023/04/12 05:10:51;;;;;;;4.63;1.90;;;6.60;97.60;;;;;;5089502;28;20220;-66
2023/04/12 05:13:18;;;;;;;4.90;2.20;;;6.70;97.30;;;;;;5089810;28;20185;-65
2023/04/12 05:15:45;;;;;;;6.15;2.38;;;6.80;97.00;;;;;;5089077;28;20663;-65
2023/04/12 05:18:11;;;;;;;7.03;2.25;;;6.90;96.60;;;;;;5089622;28;20236;-66
2023/04/12 05:20:40;;;;;;;3.25;2.08;;;7.00;96.20;;;;;;5089099;28;20283;-65
2023/04/12 05:23:06;;;;;;;4.32;2.15;;;7.20;95.70;;;;;;5078740;28;20217;-65
2023/04/12 05:25:34;;;;;;;4.07;2.25;;;7.20;95.10;;;;;;5075944;28;20209;-67
2023/04/12 05:28:01;;;;;;;4.57;2.00;;;7.30;94.70;;;;;;5075563;28;20667;-66
2023/04/12 05:30:28;;;;;;;2.42;1.90;;;7.30;94.40;;;;;;5075606;28;20565;-65
2023/04/12 05:32:55;;;;;;;7.00;3.00;;;7.40;94.20;;;;;;5075967;28;20207;-64
2023/04/12 05:35:22;;;;;;;4.18;2.10;;;7.40;94.10;;;;;;5075889;28;20204;-65
2023/04/12 05:37:50;;;;;;;3.92;1.63;;;7.40;94.00;;;;;;5075877;28;20275;-66
2023/04/12 05:40:17;;;;;;;6.28;4.20;;;7.40;93.80;;;;;;5076434;28;20710;-65
2023/04/12 05:42:44;;;;;;;5.35;2.22;;;7.50;93.60;;;;;;5075363;28;20212;-66
2023/04/12 05:45:11;;;;;;;3.35;1.83;;;7.50;93.50;;;;;;5076229;28;20633;-66
2023/04/12 05:47:38;;;;;;;4.55;2.10;;;7.50;93.40;;;;;;5076008;28;20221;-65
2023/04/12 05:50:06;;;;;;;3.35;1.90;;;7.60;93.30;;;;;;5075469;28;20220;-66
2023/04/12 05:52:33;;;;;;;5.55;1.95;;;7.70;93.20;;;;;;5075543;28;20556;-66
2023/04/12 05:55:01;;;;;;;5.10;2.20;;;7.80;92.90;;;;;;5075206;28;20666;-66
2023/04/12 05:57:28;;;;;;;3.83;2.30;;;7.90;92.50;;;;;;5075731;28;20228;-66
2023/04/12 05:59:55;;;;;;;5.25;2.40;;;8.00;92.30;;;;;;5075171;28;20551;-67
2023/04/12 06:02:24;;;;;;;9.45;1.90;;;8.10;92.10;;;;;;5075219;28;20201;-66
2023/04/12 06:04:52;;;;;;;3.92;1.63;;;8.10;91.90;;;;;;5075690;28;20197;-67
2023/04/12 06:07:20;;;;;;;2.95;2.10;;;8.10;91.70;;;;;;5075228;28;20225;-66
2023/04/12 06:09:47;;;;;;;9.98;2.97;;;8.10;91.60;;;;;;5075705;28;20212;-66
2023/04/12 06:12:15;;;;;;;9.07;2.38;;;8.10;91.70;;;;;;5075835;28;20238;-66
2023/04/12 06:14:42;;;;;;;3.20;2.20;;;8.10;91.80;;;;;;5076911;28;20208;-66
2023/04/12 06:17:09;;;;;;;3.75;2.10;;;8.30;92.00;;;;;;5076704;28;20216;-66
2023/04/12 06:19:35;;;;;;;5.00;2.38;;;8.50;91.40;;;;;;5078392;28;20311;-65
2023/04/12 06:22:02;;;;;;;4.20;2.35;;;8.70;90.80;;;;;;5078369;28;20197;-64
2023/04/12 06:24:29;;;;;;;6.18;3.97;;;8.90;90.10;;;;;;5078455;28;20255;-66
2023/04/12 06:26:56;;;;;;;5.47;2.33;;;9.10;89.20;;;;;;5078619;28;20217;-66
2023/04/12 06:29:24;;;;;;;4.60;2.72;;;9.30;87.90;;;;;;5079113;28;20225;-67
2023/04/12 06:31:51;;;;;;;5.60;3.10;;;9.50;86.40;;;;;;5079461;28;20225;-65
2023/04/12 06:34:18;;;;;;;2.88;2.15;;;9.70;85.30;;;;;;5076945;28;20200;-65
2023/04/12 06:36:46;;;;;;;6.67;3.00;;;9.90;83.80;;;;;;5077992;28;20229;-67
2023/04/12 06:39:15;;;;;;;2.73;1.80;;;10.00;80.80;;;;;;5075612;28;20486;-66
2023/04/12 06:41:42;;;;;;;3.07;2.23;;;10.20;79.80;;;;;;5076144;28;20447;-67
2023/04/12 06:44:09;;;;;;;3.43;1.83;;;10.40;78.40;;;;;;5077828;28;20454;-66
2023/04/12 06:46:37;;;;;;;12.47;6.70;;;10.50;76.50;;;;;;5075827;28;20538;-67
2023/04/12 06:49:04;;;;;;;6.27;3.73;;;10.60;75.30;;;;;;5076455;28;20947;-67
2023/04/12 06:51:31;;;;;;;8.87;5.37;;;10.70;74.40;;;;;;5075233;28;21058;-66
2023/04/12 06:53:58;;;;;;;6.20;3.40;;;10.80;73.60;;;;;;5075861;28;20530;-68
2023/04/12 06:56:25;;;;;;;4.17;2.93;;;10.80;73.00;;;;;;5077556;28;20462;-67
2023/04/12 06:58:52;;;;;;;4.50;3.60;;;10.90;72.70;;;;;;5078214;28;20454;-67
2023/04/12 07:01:19;;;;;;;6.77;3.50;;;11.10;72.30;;;;;;5075336;28;20446;-65
2023/04/12 07:03:47;;;;;;;5.97;3.33;;;11.20;71.50;;;;;;5075209;28;20451;-68
2023/04/12 07:06:14;;;;;;;7.50;2.30;;;11.30;70.60;;;;;;5075254;28;20463;-66
2023/04/12 07:08:41;;;;;;;2.70;1.47;;;11.30;69.80;;;;;;5074959;28;20478;-67
2023/04/12 07:11:07;;;;;;;6.13;2.10;;;11.40;69.60;;;;;;5074979;28;20487;-66
2023/04/12 07:13:35;;;;;;;3.40;1.90;;;11.40;69.60;;;;;;5075003;28;20858;-67
2023/04/12 07:16:02;;;;;;;4.80;1.97;;;11.40;69.40;;;;;;5076250;28;20467;-65
2023/04/12 07:18:29;;;;;;;3.20;1.60;;;11.40;69.10;;;;;;5074721;28;20455;-67
2023/04/12 07:20:58;;;;;;;2.70;1.60;;;11.30;69.20;;;;;;5074436;28;21019;-66
2023/04/12 07:23:26;;;;;;;2.57;1.67;;;11.30;69.70;;;;;;5075010;28;20976;-67
2023/04/12 07:25:53;;;;;;;3.37;1.70;;;11.20;70.50;;;;;;5074809;28;20949;-66
2023/04/12 07:28:20;;;;;;;4.80;2.23;;;11.20;70.00;;;;;;5074238;28;21012;-67
2023/04/12 07:30:47;;;;;;;3.50;2.00;;;11.20;70.10;;;;;;5075132;28;20482;-66
2023/04/12 07:33:13;;;;;;;2.50;1.70;;;11.30;70.20;;;;;;5076028;28;20538;-66
2023/04/12 07:35:40;;;;;;;2.83;1.47;;;11.40;70.00;;;;;;5075637;28;20441;-66
2023/04/12 07:38:08;;;;;;;3.00;1.70;;;11.60;69.90;;;;;;5075458;28;20451;-67
2023/04/12 07:40:35;;;;;;;5.00;2.00;;;11.70;69.20;;;;;;5075560;28;20443;-67
2023/04/12 07:43:02;;;;;;;5.90;1.47;;;11.90;68.90;;;;;;5076377;28;20555;-66
2023/04/12 07:45:29;;;;;;;3.13;2.10;;;12.00;68.40;;;;;;5079612;28;20475;-66
2023/04/12 07:47:56;;;;;;;3.07;1.77;;;12.20;68.10;;;;;;5080747;28;20438;-66
2023/04/12 07:50:23;;;;;;;1.87;1.60;;;12.30;67.60;;;;;;5078382;28;20450;-65
2023/04/12 07:52:50;;;;;;;2.27;1.57;;;12.40;67.30;;;;;;5077592;28;20486;-65
2023/04/12 07:55:18;;;;;;;2.90;1.70;;;12.70;66.90;;;;;;5075181;28;20443;-66
2023/04/12 07:57:45;;;;;;;4.07;1.87;;;13.00;66.00;;;;;;5074518;28;20497;-66
2023/04/12 08:00:12;;;;;;;4.70;1.90;;;13.30;65.20;;;;;;5074637;28;20549;-66
2023/04/12 08:02:39;;;;;;;3.90;1.80;;;13.40;64.10;;;;;;5074567;28;20444;-66
2023/04/12 08:05:07;;;;;;;6.30;2.13;;;13.50;63.80;;;;;;5074365;28;20478;-66
2023/04/12 08:07:34;;;;;;;3.60;1.90;;;13.50;63.40;;;;;;5074251;28;20481;-66
2023/04/12 08:10:01;;;;;;;5.13;2.40;;;13.40;63.10;;;;;;5075115;28;20529;-67
2023/04/12 08:12:29;;;;;;;4.10;1.80;;;13.30;63.20;;;;;;5075161;28;20487;-66
2023/04/12 08:14:56;;;;;;;2.10;1.33;;;13.20;63.30;;;;;;5075388;28;20826;-66
2023/04/12 08:17:23;;;;;;;2.90;2.07;;;13.20;63.50;;;;;;5077189;28;20552;-66
2023/04/12 08:19:50;;;;;;;6.60;2.20;;;13.10;63.20;;;;;;5083258;28;20534;-67
2023/04/12 08:22:16;;;;;;;4.53;1.83;;;13.10;63.20;;;;;;5082606;28;20530;-66
2023/04/12 08:24:43;;;;;;;3.03;1.77;;;13.10;63.00;;;;;;5083914;28;20892;-65
2023/04/12 08:27:12;;;;;;;2.50;1.97;;;13.00;62.80;;;;;;5088496;22;20556;-60
2023/04/12 08:29:40;;;;;;;4.67;2.03;;;12.90;62.70;;;;;;5052435;28;21008;-61
2023/04/12 08:32:08;;;;;;;4.37;1.80;;;12.80;63.00;;;;;;5052601;28;20476;-61
2023/04/12 08:34:36;;;;;;;2.97;1.80;;;12.70;63.20;;;;;;5052268;28;20506;-60
2023/04/12 08:37:03;;;;;;;4.00;1.77;;;12.60;63.40;;;;;;5052392;28;21016;-61
2023/04/12 08:39:31;;;;;;;4.27;2.40;;;12.60;63.60;;;;;;5053175;28;20812;-61
2023/04/12 08:42:00;;;;;;;2.03;1.50;;;12.40;63.80;;;;;;5052849;28;20452;-60
2023/04/12 08:44:35;;;;;;;1.67;1.40;;;12.30;64.40;;;;;;5053381;28;20826;-61
2023/04/12 08:47:05;;;;;;;3.77;2.00;;;12.20;65.50;;;;;;5053151;28;20531;-61
2023/04/12 08:49:32;;;;;;;2.27;1.60;;;12.00;67.50;;;;;;5052918;28;20447;-61
2023/04/12 08:52:04;;;;;;;4.07;1.87;;;11.80;70.10;;;;;;5052524;28;20476;-63
2023/04/12 08:54:31;;;;;;;2.57;1.43;;;11.70;73.70;;;;;;5052108;28;20874;-61
2023/04/12 08:57:01;;;;;;;2.57;1.67;;;11.50;76.40;;;;;;5053655;28;20551;-61
2023/04/12 08:59:29;;;;;;;5.37;2.40;;;11.40;80.20;;;;;;5056328;28;20470;-62
2023/04/12 09:01:56;;;;;;;8.10;2.97;;;11.30;84.00;;;;;;5056122;28;20452;-62
2023/04/12 09:04:25;;;;;;;4.10;2.80;;;11.20;87.90;;;;;;5056100;28;21012;-61
2023/04/12 09:06:52;;;;;;;2.50;2.00;;;11.10;90.70;;;;;;5056751;28;20468;-62
2023/04/12 09:09:19;;;;;;;3.50;1.90;;;11.00;92.30;;;;;;5056381;28;20527;-62
2023/04/12 09:11:45;;;;;;;3.80;2.27;;;10.90;93.70;;;;;;5056417;28;20471;-61
2023/04/12 09:14:23;;;;;;;3.70;2.13;;;10.80;94.70;;;;;;5055925;28;20451;-61
2023/04/12 09:16:50;;;;;;;4.00;2.20;;;10.60;95.60;;;;;;5056914;28;20490;-62
2023/04/12 09:19:30;;;;;;;2.97;2.07;;;10.60;96.40;;;;;;5056312;28;20534;-61
2023/04/12 09:21:58;;;;;;;2.60;2.10;;;10.50;97.00;;;;;;5056505;28;20424;-62
2023/04/12 09:24:25;;;;;;;4.10;2.17;;;10.50;97.70;;;;;;5055754;28;20450;-61
2023/04/12 09:27:02;;;;;;;4.23;2.30;;;10.50;98.20;;;;;;5055397;28;20486;-62
2023/04/12 09:29:30;;;;;;;3.17;1.80;;;10.50;98.70;;;;;;5056414;28;20878;-62
2023/04/12 09:32:00;;;;;;;3.80;2.10;;;10.50;99.00;;;;;;5055813;28;20480;-61
2023/04/12 09:34:27;;;;;;;5.17;2.70;;;10.40;99.10;;;;;;5056186;28;20786;-62
2023/04/12 09:36:53;;;;;;;3.53;2.30;;;10.40;99.40;;;;;;5055314;28;20491;-61
2023/04/12 09:39:31;;;;;;;5.23;2.30;;;10.40;99.70;;;;;;5055062;28;20433;-61
2023/04/12 09:42:05;;;;;;;2.97;1.80;;;10.40;99.90;;;;;;5055608;28;20494;-62
2023/04/12 09:44:33;;;;;;;4.83;2.00;;;10.30;99.90;;;;;;5055740;28;20524;-61
2023/04/12 09:47:01;;;;;;;3.87;2.13;;;10.40;99.90;;;;;;5055444;28;20558;-61
2023/04/12 09:49:38;;;;;;;3.70;2.33;;;10.30;99.90;;;;;;5055060;28;20452;-61
2023/04/12 09:52:06;;;;;;;4.43;2.63;;;10.30;99.90;;;;;;5056222;28;20587;-62
2023/04/12 09:54:39;;;;;;;4.13;2.40;;;10.30;99.90;;;;;;5056158;28;20448;-62
2023/04/12 09:57:07;;;;;;;5.53;2.60;;;10.30;99.90;;;;;;5056026;28;20473;-62
2023/04/12 09:59:37;;;;;;;4.47;2.30;;;10.30;99.90;;;;;;5055657;28;20559;-62
2023/04/12 10:02:08;;;;;;;5.35;2.83;;;10.30;99.90;;;;;;5056136;28;20428;-62
2023/04/12 10:04:37;;;;;;;6.13;2.70;;;10.30;99.90;;;;;;5055604;28;20304;-61
2023/04/12 10:07:05;;;;;;;3.53;2.73;;;10.30;99.90;;;;;;5055212;28;20217;-62
2023/04/12 10:09:34;;;;;;;3.43;1.90;;;10.30;99.90;;;;;;5055242;28;20526;-63
2023/04/12 10:12:03;;;;;;;2.70;2.23;;;10.30;99.90;;;;;;5055080;28;20475;-61
2023/04/12 10:14:31;;;;;;;5.47;2.30;;;10.40;99.90;;;;;;5055467;28;20877;-62
2023/04/12 10:16:58;;;;;;;2.33;1.97;;;10.50;99.90;;;;;;5054755;28;20504;-62
2023/04/12 10:19:27;;;;;;;4.27;2.60;;;10.50;99.90;;;;;;5055054;28;20539;-62
2023/04/12 10:21:55;;;;;;;4.47;2.10;;;10.60;99.90;;;;;;5055285;28;20436;-62
2023/04/12 10:24:22;;;;;;;2.83;2.60;;;10.60;99.90;;;;;;5055182;28;20462;-61
2023/04/12 10:26:52;;;;;;;2.60;2.10;;;10.60;99.90;;;;;;5054543;28;20482;-63
2023/04/12 10:29:24;;;;;;;3.47;2.30;;;10.60;99.90;;;;;;5055531;28;20476;-62
2023/04/12 10:31:51;;;;;;;3.87;2.50;;;10.50;99.90;;;;;;5054087;28;20476;-62
2023/04/12 10:34:18;;;;;;;7.37;2.83;;;10.50;99.90;;;;;;5054464;28;20454;-62
2023/04/12 10:36:52;;;;;;;4.73;2.40;;;10.50;99.90;;;;;;5055077;28;20467;-62
2023/04/12 10:39:34;;;;;;;3.30;2.57;;;10.60;99.90;;;;;;5055688;28;20862;-63
2023/04/12 10:42:25;;;;;;;2.23;1.83;;;10.60;99.90;;;;;;5055321;28;20428;-61
2023/04/12 10:44:53;;;;;;;2.07;1.93;;;10.70;99.90;;;;;;5055049;28;20432;-62
2023/04/12 10:48:00;;;;;;;3.23;1.97;;;10.80;99.90;;;;;;5053963;28;20472;-62
2023/04/12 10:50:28;;;;;;;2.87;2.00;;;10.90;99.90;;;;;;5013945;28;20447;-63
2023/04/12 10:53:21;;;;;;;4.90;2.30;;;11.00;99.90;;;;;;5054019;28;20487;-62
2023/04/12 10:55:48;;;;;;;3.10;2.10;;;11.10;99.90;;;;;;5053948;28;20440;-62
2023/04/12 11:01:17;;;;;;;2.57;2.10;;;11.10;99.90;;;;;;5152228;27;20539;-64
2023/04/12 11:04:08;;;;;;;2.63;1.70;;;11.00;99.90;;;;;;5152200;27;20427;-62
2023/04/12 11:06:48;;;;;;;2.13;1.93;;;11.10;99.90;;;;;;5152733;27;20463;-63
2023/04/12 11:09:19;;;;;;;5.03;2.80;;;11.10;99.90;;;;;;5152339;27;20416;-62
2023/04/12 11:11:46;;;;;;;4.73;2.40;;;11.00;99.90;;;;;;5152325;27;20432;-64
2023/04/12 11:14:14;;;;;;;4.30;2.50;;;10.90;99.90;;;;;;5152167;27;20955;-62
2023/04/12 11:17:19;;;;;;;5.17;2.57;;;10.80;99.90;;;;;;5152115;27;20459;-63
2023/04/12 11:19:51;;;;;;;4.40;2.60;;;10.70;99.90;;;;;;5151550;27;20505;-62
2023/04/12 11:22:21;;;;;;;4.63;2.77;;;10.60;99.90;;;;;;5151945;27;20424;-62
2023/04/12 11:24:49;;;;;;;4.90;2.90;;;10.50;99.90;;;;;;5152460;27;20554;-62
2023/04/12 11:27:16;;;;;;;3.57;2.47;;;10.50;99.90;;;;;;5151341;27;20483;-62
2023/04/12 11:29:45;;;;;;;3.53;2.47;;;10.60;99.90;;;;;;5151579;27;20528;-62
2023/04/12 11:32:13;;;;;;;4.90;2.67;;;10.60;99.90;;;;;;5150877;27;20903;-62
2023/04/12 11:34:41;;;;;;;4.23;2.83;;;10.70;99.90;;;;;;5151086;27;20440;-62
2023/04/12 11:37:10;;;;;;;5.80;2.23;;;10.70;99.90;;;;;;5151511;27;20448;-63
2023/04/12 11:39:39;;;;;;;4.83;2.20;;;10.70;99.90;;;;;;5151811;27;20479;-63
2023/04/12 11:42:07;;;;;;;3.37;2.40;;;10.80;99.90;;;;;;5151416;27;20439;-62
2023/04/12 11:44:35;;;;;;;2.53;1.90;;;10.80;99.90;;;;;;5151460;27;20448;-63
2023/04/12 11:47:03;;;;;;;3.50;1.70;;;10.70;99.90;;;;;;5151690;27;20460;-62
2023/04/12 11:49:30;;;;;;;3.63;2.33;;;10.70;99.90;;;;;;5151195;27;20431;-62
2023/04/12 11:52:04;;;;;;;2.60;2.40;;;10.70;99.90;;;;;;5150818;27;20456;-62
2023/04/12 11:54:33;;;;;;;2.47;2.13;;;10.70;99.90;;;;;;5151110;27;20440;-63
2023/04/12 11:57:00;;;;;;;2.40;2.20;;;10.70;99.90;;;;;;5151268;27;20455;-65
2023/04/12 11:59:32;;;;;;;2.43;1.87;;;10.70;99.90;;;;;;5150674;27;20487;-63
2023/04/12 12:02:01;;;;;;;4.10;2.20;;;10.70;99.90;;;;;;5150626;27;20812;-61
2023/04/12 12:04:28;;;;;;;2.13;1.77;;;10.70;99.90;;;;;;5151146;27;20443;-62
2023/04/12 12:06:56;;;;;;;5.60;2.70;;;10.70;99.90;;;;;;5151267;27;20463;-63
2023/04/12 12:09:24;;;;;;;2.47;2.10;;;10.80;99.90;;;;;;5150721;27;20478;-65
2023/04/12 12:11:54;;;;;;;2.53;2.20;;;10.80;99.90;;;;;;5139982;27;20462;-62
2023/04/12 12:14:21;;;;;;;3.33;2.00;;;10.90;99.90;;;;;;5137249;27;20536;-64
2023/04/12 12:16:55;;;;;;;2.27;2.07;;;10.90;99.90;;;;;;5136902;27;20456;-62
2023/04/12 12:19:32;;;;;;;2.67;2.20;;;10.90;99.90;;;;;;5136432;27;20440;-62
2023/04/12 12:22:13;;;;;;;4.03;2.00;;;10.90;99.90;;;;;;5136660;27;20535;-63
2023/04/12 12:24:44;;;;;;;2.10;1.90;;;11.00;99.90;;;;;;5136777;27;20444;-62
2023/04/12 12:27:13;;;;;;;3.13;2.00;;;11.00;99.90;;;;;;5136454;27;20460;-62
2023/04/12 12:29:40;;;;;;;2.80;1.87;;;11.00;99.90;;;;;;5136635;27;20436;-62
2023/04/12 12:32:12;;;;;;;2.90;2.03;;;11.00;99.90;;;;;;5136831;27;20440;-63
2023/04/12 12:34:40;;;;;;;4.73;1.90;;;11.10;99.90;;;;;;5136473;27;20539;-62
2023/04/12 12:37:13;;;;;;;4.30;1.73;;;11.20;99.90;;;;;;5136747;27;20466;-64
2023/04/12 12:39:59;;;;;;;2.00;1.70;;;11.30;99.90;;;;;;5137162;27;20473;-63
2023/04/12 12:42:27;;;;;;;1.97;1.80;;;11.30;99.90;;;;;;5136250;27;20431;-63
2023/04/12 12:44:54;;;;;;;2.50;2.27;;;11.30;99.90;;;;;;5136491;27;20440;-63
2023/04/12 12:47:21;;;;;;;2.73;1.73;;;11.30;99.90;;;;;;5136060;27;20467;-62
2023/04/12 12:49:48;;;;;;;3.30;2.03;;;11.40;99.90;;;;;;5136378;27;20521;-63
2023/04/12 12:52:15;;;;;;;2.33;1.80;;;11.50;99.90;;;;;;5136372;27;20441;-62
2023/04/12 12:54:41;;;;;;;2.03;1.80;;;11.60;99.90;;;;;;5136472;27;20449;-63
2023/04/12 12:57:08;;;;;;;2.87;1.73;;;11.60;99.90;;;;;;5136425;27;20829;-64
2023/04/12 12:59:37;;;;;;;3.20;1.77;;;11.50;99.90;;;;;;5135988;27;20484;-62
2023/04/12 13:02:04;;;;;;;1.87;1.77;;;11.50;99.90;;;;;;5135824;27;20447;-63
2023/04/12 13:04:30;;;;;;;1.70;1.60;;;11.40;99.90;;;;;;5136001;27;20824;-64
2023/04/12 13:06:57;;;;;;;2.10;1.80;;;11.40;99.90;;;;;;5136144;27;20460;-63